Time;durP1;ratioP1;P1;durP2;ratioP2;P2;SDS_P1;SDS_P2;PMS_P1;PMS_P2;Temp;Humidity;BMP_temperature;BMP_pressure;BME280_temperature;BME280_humidity;BME280_pressure;Samples;Min_cycle;Max_cycle;Signal;HPM_P1;HPM_P2
2022/10/18 00:00:47;;;;;;;0.60;0.60;;;;;;;;;;5083725;28;20449;-85
2022/10/18 00:03:13;;;;;;;0.70;0.60;;;;;;;;;;5066873;28;20472;-86
2022/10/18 00:05:40;;;;;;;0.70;0.70;;;;;;;;;;5084417;28;20826;-85
2022/10/18 00:08:09;;;;;;;0.60;0.60;;;;;;;;;;5074567;28;20525;-86
2022/10/18 00:10:36;;;;;;;0.70;0.70;;;;;;;;;;5080184;28;20935;-84
2022/10/18 00:13:04;;;;;;;0.70;0.70;;;;;;;;;;5085204;28;20485;-84
2022/10/18 00:15:31;;;;;;;1.10;1.10;;;;;;;;;;5081064;28;20534;-84
2022/10/18 00:17:59;;;;;;;0.70;0.70;;;;;;;;;;5081195;28;20450;-83
2022/10/18 00:20:27;;;;;;;0.73;0.73;;;;;;;;;;5078380;28;20465;-84
2022/10/18 00:22:54;;;;;;;1.17;1.13;;;;;;;;;;5065269;28;20445;-85
2022/10/18 00:25:20;;;;;;;0.80;0.80;;;;;;;;;;5082001;28;20452;-86
2022/10/18 00:27:48;;;;;;;0.60;0.60;;;;;;;;;;5065627;28;20450;-86
2022/10/18 00:30:16;;;;;;;1.77;1.00;;;;;;;;;;5082857;28;20556;-85
2022/10/18 00:32:44;;;;;;;0.70;0.70;;;;;;;;;;5074906;28;20463;-84
2022/10/18 00:35:10;;;;;;;0.60;0.60;;;;;;;;;;5086812;28;20448;-86
2022/10/18 00:37:37;;;;;;;0.70;0.70;;;;;;;;;;5065558;28;20455;-85
2022/10/18 00:40:05;;;;;;;1.43;0.80;;;;;;;;;;5059833;28;20451;-85
2022/10/18 00:42:34;;;;;;;0.70;0.70;;;;;;;;;;5079314;28;20476;-86
2022/10/18 00:45:11;;;;;;;0.63;0.63;;;;;;;;;;5080657;28;20430;-85
2022/10/18 00:47:42;;;;;;;0.70;0.70;;;;;;;;;;5083098;28;20441;-87
2022/10/18 00:50:09;;;;;;;0.70;0.70;;;;;;;;;;5072924;28;20450;-85
2022/10/18 00:52:38;;;;;;;0.80;0.80;;;;;;;;;;5066787;28;20502;-86
2022/10/18 00:55:08;;;;;;;0.70;0.70;;;;;;;;;;5082417;28;20453;-84
2022/10/18 00:57:39;;;;;;;0.70;0.70;;;;;;;;;;5077969;28;20447;-86
2022/10/18 01:00:11;;;;;;;0.70;0.70;;;;;;;;;;5076069;28;20443;-86
2022/10/18 01:02:47;;;;;;;0.70;0.70;;;;;;;;;;5084450;28;20426;-85
2022/10/18 01:05:18;;;;;;;0.60;0.60;;;;;;;;;;5093467;28;20489;-81
2022/10/18 01:08:05;;;;;;;1.63;1.33;;;;;;;;;;5087295;28;20523;-86
2022/10/18 01:10:39;;;;;;;0.70;0.67;;;;;;;;;;5080268;28;20481;-86
2022/10/18 01:13:34;;;;;;;0.70;0.67;;;;;;;;;;5065062;28;21004;-88
2022/10/18 01:16:07;;;;;;;0.80;0.80;;;;;;;;;;5065014;28;20465;-85
2022/10/18 01:18:48;;;;;;;0.60;0.60;;;;;;;;;;5043075;28;20458;-86
2022/10/18 01:21:25;;;;;;;0.67;0.67;;;;;;;;;;5064727;28;20504;-85
2022/10/18 01:24:10;;;;;;;0.70;0.70;;;;;;;;;;5057121;28;20446;-87
2022/10/18 01:26:45;;;;;;;1.47;1.33;;;;;;;;;;5064576;28;20435;-85
2022/10/18 01:29:19;;;;;;;0.60;0.60;;;;;;;;;;5078877;28;20476;-84
2022/10/18 01:31:59;;;;;;;0.70;0.70;;;;;;;;;;5050362;28;20448;-85
2022/10/18 01:34:30;;;;;;;0.63;0.63;;;;;;;;;;5090861;28;20788;-85
2022/10/18 01:37:04;;;;;;;1.10;1.07;;;;;;;;;;5050893;28;20464;-86
2022/10/18 01:39:43;;;;;;;0.60;0.60;;;;;;;;;;5078989;28;20545;-86
2022/10/18 01:42:17;;;;;;;0.60;0.60;;;;;;;;;;5065987;28;20800;-86
2022/10/18 01:44:51;;;;;;;0.80;0.80;;;;;;;;;;5082990;28;20437;-87
2022/10/18 01:50:29;;;;;;;0.67;0.67;;;;;;;;;;5075872;28;20455;-86
2022/10/18 01:52:59;;;;;;;0.70;0.70;;;;;;;;;;5059488;28;20466;-85
2022/10/18 01:55:32;;;;;;;0.70;0.70;;;;;;;;;;5077706;28;20980;-86
2022/10/18 01:58:04;;;;;;;0.60;0.60;;;;;;;;;;5042159;28;20443;-86
2022/10/18 02:00:36;;;;;;;0.70;0.70;;;;;;;;;;5084756;28;20445;-85
2022/10/18 02:03:15;;;;;;;0.60;0.60;;;;;;;;;;5077333;28;20449;-85
2022/10/18 02:05:48;;;;;;;0.90;0.90;;;;;;;;;;5060024;28;20467;-85
2022/10/18 02:08:28;;;;;;;0.60;0.60;;;;;;;;;;5077542;28;20461;-88
2022/10/18 02:10:58;;;;;;;0.90;0.90;;;;;;;;;;5065039;28;20485;-86
2022/10/18 02:13:30;;;;;;;1.30;1.23;;;;;;;;;;5074706;28;21064;-87
2022/10/18 02:15:59;;;;;;;0.60;0.60;;;;;;;;;;5051325;28;20451;-85
2022/10/18 02:18:28;;;;;;;0.70;0.70;;;;;;;;;;5068719;28;20442;-86
2022/10/18 02:20:57;;;;;;;1.97;0.90;;;;;;;;;;5071422;28;21007;-85
2022/10/18 02:23:28;;;;;;;0.70;0.70;;;;;;;;;;5072245;28;20469;-84
2022/10/18 02:25:55;;;;;;;0.70;0.70;;;;;;;;;;5073467;28;20549;-83
2022/10/18 02:28:22;;;;;;;1.43;1.33;;;;;;;;;;5074765;28;20557;-86
2022/10/18 02:30:51;;;;;;;1.27;1.20;;;;;;;;;;5067297;28;20437;-84
2022/10/18 02:33:22;;;;;;;0.70;0.70;;;;;;;;;;5060113;28;20484;-83
2022/10/18 02:35:51;;;;;;;0.60;0.60;;;;;;;;;;5055263;28;20533;-84
2022/10/18 02:38:22;;;;;;;0.70;0.70;;;;;;;;;;5079748;28;20814;-84
2022/10/18 02:40:52;;;;;;;0.70;0.70;;;;;;;;;;5076256;28;20936;-82
2022/10/18 02:43:18;;;;;;;0.70;0.70;;;;;;;;;;5056639;28;20466;-83
2022/10/18 02:45:45;;;;;;;0.60;0.60;;;;;;;;;;5065239;28;20450;-84
2022/10/18 02:48:12;;;;;;;1.40;1.00;;;;;;;;;;5075201;28;20437;-82
2022/10/18 02:50:38;;;;;;;0.60;0.60;;;;;;;;;;5076829;28;20457;-81
2022/10/18 02:53:06;;;;;;;1.53;1.33;;;;;;;;;;5064572;28;20474;-81
2022/10/18 02:55:35;;;;;;;0.73;0.73;;;;;;;;;;5083878;28;20455;-81
2022/10/18 02:58:02;;;;;;;0.77;0.77;;;;;;;;;;5080989;28;20768;-79
2022/10/18 03:00:30;;;;;;;0.60;0.60;;;;;;;;;;5067730;28;20451;-82
2022/10/18 03:02:57;;;;;;;1.37;1.27;;;;;;;;;;5077758;28;21058;-80
2022/10/18 03:05:23;;;;;;;0.70;0.70;;;;;;;;;;5088028;28;20474;-80
2022/10/18 03:07:51;;;;;;;1.30;1.00;;;;;;;;;;5070805;28;20458;-80
2022/10/18 03:10:19;;;;;;;1.20;1.10;;;;;;;;;;5070358;28;20457;-81
2022/10/18 03:12:50;;;;;;;0.60;0.60;;;;;;;;;;5054769;28;20483;-81
2022/10/18 03:15:17;;;;;;;0.60;0.60;;;;;;;;;;5075472;28;20456;-85
2022/10/18 03:17:44;;;;;;;0.70;0.70;;;;;;;;;;5073555;28;20783;-80
2022/10/18 03:20:11;;;;;;;0.70;0.70;;;;;;;;;;5083498;28;20518;-81
2022/10/18 03:22:38;;;;;;;0.80;0.70;;;;;;;;;;5090069;28;20448;-81
2022/10/18 03:25:06;;;;;;;0.70;0.70;;;;;;;;;;5088552;28;20442;-82
2022/10/18 03:27:36;;;;;;;0.70;0.70;;;;;;;;;;5069654;28;20468;-82
2022/10/18 03:30:04;;;;;;;2.00;1.90;;;;;;;;;;5087222;28;20452;-81
2022/10/18 03:32:34;;;;;;;0.60;0.60;;;;;;;;;;5093704;28;20982;-83
2022/10/18 03:35:01;;;;;;;1.27;1.17;;;;;;;;;;5082516;28;20464;-81
2022/10/18 03:37:28;;;;;;;0.60;0.60;;;;;;;;;;5066300;28;20445;-81
2022/10/18 03:39:55;;;;;;;0.60;0.60;;;;;;;;;;5078879;28;20438;-81
2022/10/18 03:42:22;;;;;;;4.63;1.97;;;;;;;;;;5075311;28;20529;-82
2022/10/18 03:44:49;;;;;;;1.03;0.90;;;;;;;;;;5059092;28;20537;-81
2022/10/18 03:47:20;;;;;;;0.60;0.60;;;;;;;;;;5089611;28;20501;-81
2022/10/18 03:49:48;;;;;;;0.90;0.90;;;;;;;;;;5084070;28;20871;-81
2022/10/18 03:52:20;;;;;;;0.73;0.73;;;;;;;;;;5081541;28;20966;-81
2022/10/18 03:54:47;;;;;;;0.73;0.73;;;;;;;;;;5080727;28;20523;-81
2022/10/18 03:57:15;;;;;;;1.27;0.90;;;;;;;;;;5065483;28;20964;-81
2022/10/18 03:59:41;;;;;;;0.60;0.60;;;;;;;;;;5084947;28;20445;-80
2022/10/18 04:02:08;;;;;;;1.63;1.00;;;;;;;;;;5070787;28;20485;-81
2022/10/18 04:04:37;;;;;;;0.60;0.60;;;;;;;;;;5070493;28;20461;-80
2022/10/18 04:07:05;;;;;;;0.90;0.90;;;;;;;;;;5074092;28;20481;-81
2022/10/18 04:09:32;;;;;;;0.60;0.60;;;;;;;;;;5078216;28;20457;-80
2022/10/18 04:12:03;;;;;;;0.93;0.93;;;;;;;;;;5080589;28;20445;-81
2022/10/18 04:14:30;;;;;;;0.60;0.60;;;;;;;;;;5090713;28;21098;-80
2022/10/18 04:16:57;;;;;;;0.70;0.70;;;;;;;;;;5087152;28;20470;-81
2022/10/18 04:19:23;;;;;;;0.97;0.87;;;;;;;;;;5085556;28;20489;-80
2022/10/18 04:21:52;;;;;;;0.60;0.60;;;;;;;;;;5087435;28;20470;-81
2022/10/18 04:24:18;;;;;;;0.83;0.83;;;;;;;;;;5087541;28;20459;-82
2022/10/18 04:26:45;;;;;;;1.17;1.07;;;;;;;;;;5084478;28;20961;-82
2022/10/18 04:29:12;;;;;;;1.63;1.53;;;;;;;;;;5093122;28;20449;-82
2022/10/18 04:31:39;;;;;;;0.60;0.60;;;;;;;;;;5077139;28;21070;-82
2022/10/18 04:34:05;;;;;;;0.60;0.60;;;;;;;;;;5060008;28;20500;-82
2022/10/18 04:36:33;;;;;;;0.80;0.80;;;;;;;;;;5068266;28;20468;-83
2022/10/18 04:39:01;;;;;;;0.70;0.70;;;;;;;;;;5076265;28;20447;-82
2022/10/18 04:41:30;;;;;;;0.60;0.60;;;;;;;;;;5076676;28;20436;-82
2022/10/18 04:43:57;;;;;;;0.90;0.90;;;;;;;;;;5083378;28;20467;-82
2022/10/18 04:46:25;;;;;;;0.83;0.83;;;;;;;;;;5067674;28;21037;-82
2022/10/18 04:48:52;;;;;;;0.67;0.67;;;;;;;;;;5067740;28;20449;-83
2022/10/18 04:51:19;;;;;;;1.23;0.90;;;;;;;;;;5081605;28;20459;-84
2022/10/18 04:53:47;;;;;;;1.00;1.00;;;;;;;;;;5063689;28;20483;-83
2022/10/18 04:56:15;;;;;;;0.60;0.60;;;;;;;;;;5084614;28;20438;-83
2022/10/18 04:58:42;;;;;;;0.70;0.70;;;;;;;;;;5084305;28;20528;-82
2022/10/18 05:01:09;;;;;;;0.80;0.80;;;;;;;;;;5076878;28;20942;-82
2022/10/18 05:03:37;;;;;;;0.70;0.70;;;;;;;;;;5064450;28;20458;-83
2022/10/18 05:06:04;;;;;;;0.87;0.87;;;;;;;;;;5085068;28;20505;-82
2022/10/18 05:08:33;;;;;;;0.60;0.60;;;;;;;;;;5054057;28;20455;-82
2022/10/18 05:11:02;;;;;;;0.70;0.70;;;;;;;;;;5076412;28;20439;-83
2022/10/18 05:13:30;;;;;;;0.60;0.60;;;;;;;;;;5078805;28;20472;-82
2022/10/18 05:15:59;;;;;;;1.00;1.00;;;;;;;;;;5067180;28;20530;-83
2022/10/18 05:18:26;;;;;;;0.60;0.60;;;;;;;;;;5082626;28;20428;-82
2022/10/18 05:20:53;;;;;;;0.70;0.70;;;;;;;;;;5065651;28;20471;-83
2022/10/18 05:23:20;;;;;;;0.70;0.70;;;;;;;;;;5061400;28;20469;-82
2022/10/18 05:25:46;;;;;;;1.10;1.00;;;;;;;;;;5086840;28;20444;-83
2022/10/18 05:28:14;;;;;;;0.93;0.90;;;;;;;;;;5068118;28;20462;-84
2022/10/18 05:31:02;;;;;;;1.33;1.30;;;;;;;;;;5081996;28;20446;-82
2022/10/18 05:33:29;;;;;;;0.60;0.60;;;;;;;;;;5065545;28;20980;-82
2022/10/18 05:35:56;;;;;;;2.03;1.33;;;;;;;;;;5089030;28;20502;-82
2022/10/18 05:38:22;;;;;;;1.10;1.10;;;;;;;;;;5074444;28;20830;-83
2022/10/18 05:40:53;;;;;;;0.70;0.70;;;;;;;;;;5080917;28;20434;-84
2022/10/18 05:43:20;;;;;;;1.27;1.20;;;;;;;;;;5063028;28;20462;-84
2022/10/18 05:45:47;;;;;;;0.60;0.60;;;;;;;;;;5067366;28;20964;-82
2022/10/18 05:48:17;;;;;;;0.70;0.70;;;;;;;;;;5083349;28;20430;-82
2022/10/18 05:50:45;;;;;;;0.93;0.93;;;;;;;;;;5066378;28;20472;-81
2022/10/18 05:53:14;;;;;;;1.60;1.30;;;;;;;;;;5081433;28;20940;-83
2022/10/18 05:56:04;;;;;;;1.53;1.43;;;;;;;;;;5084672;28;21029;-81
2022/10/18 05:58:31;;;;;;;0.60;0.60;;;;;;;;;;5080380;28;20442;-82
2022/10/18 06:00:59;;;;;;;0.60;0.60;;;;;;;;;;5064014;28;20501;-82
2022/10/18 06:03:29;;;;;;;3.67;2.07;;;;;;;;;;5072061;28;20443;-82
2022/10/18 06:05:59;;;;;;;0.60;0.60;;;;;;;;;;5086863;28;20522;-80
2022/10/18 06:08:27;;;;;;;0.60;0.60;;;;;;;;;;5082129;28;21285;-83
2022/10/18 06:10:57;;;;;;;0.97;0.97;;;;;;;;;;5083674;28;20938;-83
2022/10/18 06:13:25;;;;;;;0.60;0.60;;;;;;;;;;5078438;28;20478;-83
2022/10/18 06:15:54;;;;;;;0.70;0.70;;;;;;;;;;5066000;28;20447;-82
2022/10/18 06:18:21;;;;;;;1.57;1.37;;;;;;;;;;5085107;28;20941;-84
2022/10/18 06:20:56;;;;;;;1.00;1.00;;;;;;;;;;5068939;28;20474;-80
2022/10/18 06:23:25;;;;;;;0.60;0.60;;;;;;;;;;5079718;28;20472;-81
2022/10/18 06:25:56;;;;;;;2.63;0.87;;;;;;;;;;5078353;28;20453;-82
2022/10/18 06:28:24;;;;;;;0.80;0.80;;;;;;;;;;5068262;28;20451;-80
2022/10/18 06:30:51;;;;;;;0.60;0.60;;;;;;;;;;5083003;28;20989;-83
2022/10/18 06:33:17;;;;;;;0.80;0.80;;;;;;;;;;5080704;28;20972;-82
2022/10/18 06:35:55;;;;;;;1.00;1.00;;;;;;;;;;5061746;28;21009;-82
2022/10/18 06:38:26;;;;;;;0.67;0.67;;;;;;;;;;5068135;28;20444;-83
2022/10/18 06:40:55;;;;;;;1.80;1.13;;;;;;;;;;5082520;28;20528;-82
2022/10/18 06:43:22;;;;;;;0.80;0.80;;;;;;;;;;5080688;28;20511;-82
2022/10/18 06:45:49;;;;;;;1.40;1.30;;;;;;;;;;5084976;28;20995;-82
2022/10/18 06:48:19;;;;;;;0.70;0.70;;;;;;;;;;5084213;28;20475;-82
2022/10/18 06:50:50;;;;;;;0.60;0.60;;;;;;;;;;5077190;28;20461;-83
2022/10/18 06:53:19;;;;;;;0.67;0.67;;;;;;;;;;5077403;28;20541;-83
2022/10/18 06:55:47;;;;;;;0.67;0.67;;;;;;;;;;5074234;28;20496;-82
2022/10/18 06:58:14;;;;;;;1.30;1.20;;;;;;;;;;5068252;28;20439;-81
2022/10/18 07:00:44;;;;;;;0.70;0.70;;;;;;;;;;5069607;28;20469;-81
2022/10/18 07:03:11;;;;;;;1.17;1.00;;;;;;;;;;5078441;28;20446;-81
2022/10/18 07:05:37;;;;;;;0.60;0.60;;;;;;;;;;5075326;28;21004;-82
2022/10/18 07:08:06;;;;;;;0.70;0.70;;;;;;;;;;5075446;28;20428;-82
2022/10/18 07:10:33;;;;;;;0.60;0.60;;;;;;;;;;5073847;28;20499;-82
2022/10/18 07:13:01;;;;;;;0.90;0.90;;;;;;;;;;5078769;28;20792;-83
2022/10/18 07:15:47;;;;;;;0.70;0.70;;;;;;;;;;5060570;28;20588;-82
2022/10/18 07:18:16;;;;;;;0.60;0.60;;;;;;;;;;5072455;28;20438;-83
2022/10/18 07:20:42;;;;;;;0.93;0.90;;;;;;;;;;5076129;28;20473;-82
2022/10/18 07:23:10;;;;;;;1.20;1.07;;;;;;;;;;5059346;28;20453;-82
2022/10/18 07:25:37;;;;;;;0.70;0.70;;;;;;;;;;5085022;28;20535;-81
2022/10/18 07:28:05;;;;;;;0.70;0.70;;;;;;;;;;5085793;28;20489;-81
2022/10/18 07:30:32;;;;;;;0.60;0.60;;;;;;;;;;5079682;28;21031;-82
2022/10/18 07:33:01;;;;;;;0.60;0.60;;;;;;;;;;5053866;28;20451;-85
2022/10/18 07:35:27;;;;;;;0.60;0.60;;;;;;;;;;5086670;28;20540;-83
2022/10/18 07:37:55;;;;;;;1.37;1.27;;;;;;;;;;5084724;28;20478;-83
2022/10/18 07:40:21;;;;;;;0.97;0.93;;;;;;;;;;5089293;28;21007;-84
2022/10/18 07:42:50;;;;;;;0.80;0.80;;;;;;;;;;5078290;28;20964;-84
2022/10/18 07:45:18;;;;;;;0.60;0.60;;;;;;;;;;5078020;28;20502;-83
2022/10/18 07:47:46;;;;;;;0.70;0.70;;;;;;;;;;5060585;28;20534;-83
2022/10/18 07:50:13;;;;;;;0.90;0.90;;;;;;;;;;5083236;28;20505;-83
2022/10/18 07:52:41;;;;;;;0.70;0.70;;;;;;;;;;5088447;28;20795;-82
2022/10/18 07:55:08;;;;;;;1.57;1.47;;;;;;;;;;5069715;28;20832;-82
2022/10/18 07:57:35;;;;;;;1.00;0.97;;;;;;;;;;5068202;28;20891;-82
2022/10/18 08:00:02;;;;;;;0.70;0.70;;;;;;;;;;5080992;28;20474;-81
2022/10/18 08:02:38;;;;;;;0.97;0.97;;;;;;;;;;5083571;28;20507;-82
2022/10/18 08:05:07;;;;;;;0.93;0.90;;;;;;;;;;5079985;28;20445;-83
2022/10/18 08:07:34;;;;;;;5.23;1.57;;;;;;;;;;5077288;28;20491;-83
2022/10/18 08:10:00;;;;;;;4.10;1.70;;;;;;;;;;5091256;28;20440;-82
2022/10/18 08:12:29;;;;;;;0.70;0.70;;;;;;;;;;5081333;28;20486;-83
2022/10/18 08:14:56;;;;;;;1.00;1.00;;;;;;;;;;5087512;28;20477;-82
2022/10/18 08:17:23;;;;;;;0.70;0.70;;;;;;;;;;5059070;28;20814;-82
2022/10/18 08:19:51;;;;;;;0.60;0.60;;;;;;;;;;5073249;28;20447;-81
2022/10/18 08:22:39;;;;;;;0.87;0.87;;;;;;;;;;5083479;28;20867;-82
2022/10/18 08:25:07;;;;;;;0.70;0.70;;;;;;;;;;5084213;28;20509;-83
2022/10/18 08:27:33;;;;;;;0.80;0.80;;;;;;;;;;5083329;28;20861;-82
2022/10/18 08:30:04;;;;;;;0.60;0.60;;;;;;;;;;5085729;28;20931;-82
2022/10/18 08:32:31;;;;;;;1.40;1.30;;;;;;;;;;5073499;28;20455;-82
2022/10/18 08:34:59;;;;;;;0.80;0.80;;;;;;;;;;5086342;28;21017;-82
2022/10/18 08:37:31;;;;;;;0.60;0.60;;;;;;;;;;5079639;28;20439;-83
2022/10/18 08:39:59;;;;;;;2.63;1.17;;;;;;;;;;5082789;28;20454;-81
2022/10/18 08:42:48;;;;;;;12.33;1.50;;;;;;;;;;5063215;28;20451;-81
2022/10/18 08:45:15;;;;;;;0.70;0.70;;;;;;;;;;5059645;28;20457;-81
2022/10/18 08:48:04;;;;;;;1.20;1.10;;;;;;;;;;5097765;28;20434;-81
2022/10/18 08:50:36;;;;;;;0.60;0.60;;;;;;;;;;5078997;28;20813;-80
2022/10/18 08:53:12;;;;;;;0.70;0.70;;;;;;;;;;5084754;28;20433;-81
2022/10/18 08:55:41;;;;;;;0.60;0.60;;;;;;;;;;5083391;28;20552;-81
2022/10/18 08:58:14;;;;;;;0.63;0.63;;;;;;;;;;5068070;28;20461;-81
2022/10/18 09:00:45;;;;;;;0.70;0.70;;;;;;;;;;5077322;28;20839;-81
2022/10/18 09:03:18;;;;;;;0.63;0.63;;;;;;;;;;5053689;28;20526;-82
2022/10/18 09:05:48;;;;;;;0.70;0.70;;;;;;;;;;5077032;28;20464;-83
2022/10/18 09:08:34;;;;;;;0.93;0.90;;;;;;;;;;5073729;28;20493;-82
2022/10/18 09:11:05;;;;;;;0.67;0.67;;;;;;;;;;5076965;28;20901;-83
2022/10/18 09:13:55;;;;;;;1.10;1.00;;;;;;;;;;5072302;28;20450;-84
2022/10/18 09:16:27;;;;;;;1.10;1.10;;;;;;;;;;5068360;28;20568;-82
2022/10/18 09:18:58;;;;;;;0.67;0.67;;;;;;;;;;5084985;28;20794;-83
2022/10/18 09:21:35;;;;;;;0.97;0.90;;;;;;;;;;5066331;28;20465;-80
2022/10/18 09:24:07;;;;;;;0.70;0.70;;;;;;;;;;5086334;28;20464;-82
2022/10/18 09:26:38;;;;;;;0.70;0.67;;;;;;;;;;5069336;28;20476;-83
2022/10/18 09:29:09;;;;;;;4.30;2.10;;;;;;;;;;5076952;28;20437;-81
2022/10/18 09:31:41;;;;;;;0.67;0.67;;;;;;;;;;5085431;28;20444;-82
2022/10/18 09:34:12;;;;;;;0.77;0.77;;;;;;;;;;5064317;28;20475;-81
2022/10/18 09:36:42;;;;;;;0.70;0.70;;;;;;;;;;5078907;28;20471;-83
2022/10/18 09:39:12;;;;;;;0.60;0.60;;;;;;;;;;5074201;28;20442;-83
2022/10/18 09:41:42;;;;;;;2.30;1.10;;;;;;;;;;5081557;28;20438;-81
2022/10/18 09:44:12;;;;;;;0.90;0.90;;;;;;;;;;5083499;28;20495;-84
2022/10/18 09:46:41;;;;;;;0.97;0.90;;;;;;;;;;5055440;28;20454;-81
2022/10/18 09:49:12;;;;;;;1.23;1.23;;;;;;;;;;5083902;28;20432;-83
2022/10/18 09:51:44;;;;;;;0.70;0.70;;;;;;;;;;5084013;28;20471;-82
2022/10/18 09:54:16;;;;;;;0.70;0.70;;;;;;;;;;5078230;28;20567;-83
2022/10/18 09:56:45;;;;;;;0.77;0.77;;;;;;;;;;5080715;28;20467;-82
2022/10/18 09:59:28;;;;;;;1.10;0.90;;;;;;;;;;5056375;28;20813;-83
2022/10/18 10:01:55;;;;;;;1.90;1.30;;;;;;;;;;5055726;28;20435;-81
2022/10/18 10:04:22;;;;;;;1.03;0.93;;;;;;;;;;5056578;28;20509;-81
2022/10/18 10:06:51;;;;;;;1.90;1.73;;;;;;;;;;5064021;28;20559;-82
2022/10/18 10:09:20;;;;;;;1.63;1.30;;;;;;;;;;5069221;28;20451;-82
2022/10/18 10:11:48;;;;;;;1.20;1.17;;;;;;;;;;5066220;28;20513;-80
2022/10/18 10:14:18;;;;;;;0.60;0.60;;;;;;;;;;5081048;28;20427;-81
2022/10/18 10:16:47;;;;;;;2.00;1.43;;;;;;;;;;5064099;28;20974;-80
2022/10/18 10:19:18;;;;;;;1.43;1.33;;;;;;;;;;5082746;28;20936;-80
2022/10/18 10:21:46;;;;;;;0.80;0.80;;;;;;;;;;5077141;28;20471;-81
2022/10/18 10:24:20;;;;;;;0.63;0.63;;;;;;;;;;5057859;28;20451;-80
2022/10/18 10:26:58;;;;;;;0.70;0.70;;;;;;;;;;5073027;28;20458;-80
2022/10/18 10:29:55;;;;;;;1.10;0.80;;;;;;;;;;5070635;28;20515;-80
2022/10/18 10:32:23;;;;;;;0.60;0.60;;;;;;;;;;5006383;28;20467;-79
2022/10/18 10:34:50;;;;;;;1.27;0.87;;;;;;;;;;5076804;28;20853;-80
2022/10/18 10:37:38;;;;;;;0.93;0.93;;;;;;;;;;5080075;28;20471;-80
2022/10/18 10:40:12;;;;;;;0.60;0.60;;;;;;;;;;5076117;28;20442;-78
2022/10/18 10:43:06;;;;;;;1.37;1.27;;;;;;;;;;5082364;28;20434;-80
2022/10/18 10:45:59;;;;;;;1.70;1.60;;;;;;;;;;5056643;28;20876;-80
2022/10/18 10:48:26;;;;;;;0.77;0.77;;;;;;;;;;5059320;28;20418;-80
2022/10/18 10:51:00;;;;;;;8.63;2.20;;;;;;;;;;5081508;28;20527;-80
2022/10/18 10:53:29;;;;;;;1.33;1.23;;;;;;;;;;5091585;28;20478;-80
2022/10/18 10:55:57;;;;;;;10.77;1.40;;;;;;;;;;5071628;28;20521;-80
2022/10/18 10:58:26;;;;;;;0.93;0.93;;;;;;;;;;5048605;28;20434;-80
2022/10/18 11:00:54;;;;;;;2.77;1.70;;;;;;;;;;5081435;28;20431;-81
2022/10/18 11:03:22;;;;;;;3.37;1.90;;;;;;;;;;5065174;28;20951;-80
2022/10/18 11:06:00;;;;;;;3.43;3.23;;;;;;;;;;5079939;28;20426;-80
2022/10/18 11:08:30;;;;;;;0.80;0.80;;;;;;;;;;5079995;28;21928;-80
2022/10/18 11:11:03;;;;;;;0.80;0.80;;;;;;;;;;5061625;28;20413;-80
2022/10/18 11:13:38;;;;;;;0.70;0.70;;;;;;;;;;5083409;28;20441;-80
2022/10/18 11:16:11;;;;;;;0.70;0.60;;;;;;;;;;5081664;28;20492;-79
2022/10/18 11:18:39;;;;;;;2.60;1.27;;;;;;;;;;5049530;28;20430;-79
2022/10/18 11:21:09;;;;;;;0.90;0.90;;;;;;;;;;5084921;28;20935;-79
2022/10/18 11:23:37;;;;;;;2.00;1.90;;;;;;;;;;5078796;28;20489;-80
2022/10/18 11:26:14;;;;;;;2.40;2.30;;;;;;;;;;5093041;28;20413;-80
2022/10/18 11:29:02;;;;;;;1.37;1.27;;;;;;;;;;5065422;28;20460;-78
2022/10/18 11:31:31;;;;;;;2.30;1.27;;;;;;;;;;5084443;28;20471;-79
2022/10/18 11:34:06;;;;;;;0.70;0.70;;;;;;;;;;5057702;28;20431;-79
2022/10/18 11:36:40;;;;;;;1.03;0.93;;;;;;;;;;5066211;28;20579;-79
2022/10/18 11:39:25;;;;;;;0.80;0.80;;;;;;;;;;5079852;28;20413;-79
2022/10/18 11:41:57;;;;;;;1.43;1.33;;;;;;;;;;5053575;28;20813;-78
2022/10/18 11:44:29;;;;;;;0.83;0.83;;;;;;;;;;5081429;28;20406;-78
2022/10/18 11:47:02;;;;;;;0.70;0.70;;;;;;;;;;5066743;28;20450;-79
2022/10/18 11:49:45;;;;;;;1.77;1.67;;;;;;;;;;5080435;28;20414;-79
2022/10/18 11:52:18;;;;;;;1.57;1.47;;;;;;;;;;5079362;28;20584;-79
2022/10/18 11:54:51;;;;;;;1.20;1.10;;;;;;;;;;5090004;28;20446;-78
2022/10/18 11:57:27;;;;;;;0.73;0.73;;;;;;;;;;5076017;28;20464;-78
2022/10/18 12:00:01;;;;;;;4.43;1.20;;;;;;;;;;5082714;28;20946;-78
2022/10/18 12:02:43;;;;;;;3.63;1.93;;;;;;;;;;5080923;28;20438;-78
2022/10/18 12:05:11;;;;;;;1.30;1.00;;;;;;;;;;5064496;28;20451;-78
2022/10/18 12:07:51;;;;;;;1.20;1.10;;;;;;;;;;5078383;28;20421;-78
2022/10/18 12:10:18;;;;;;;3.17;2.77;;;;;;;;;;5090929;28;20521;-78
2022/10/18 12:13:11;;;;;;;1.30;1.13;;;;;;;;;;5059983;28;20542;-78
2022/10/18 12:15:39;;;;;;;2.20;2.10;;;;;;;;;;5069461;28;20471;-78
2022/10/18 12:18:09;;;;;;;1.30;1.20;;;;;;;;;;5073275;28;20442;-78
2022/10/18 12:20:37;;;;;;;0.80;0.80;;;;;;;;;;5071964;28;20473;-76
2022/10/18 12:23:05;;;;;;;2.30;2.20;;;;;;;;;;5079802;28;20437;-78
2022/10/18 12:25:34;;;;;;;1.43;1.33;;;;;;;;;;5070623;28;20538;-79
2022/10/18 12:28:03;;;;;;;1.47;1.37;;;;;;;;;;5065829;28;20966;-77
2022/10/18 12:30:36;;;;;;;1.33;1.23;;;;;;;;;;5081179;28;20430;-78
2022/10/18 12:33:06;;;;;;;2.20;1.27;;;;;;;;;;5080240;28;20456;-78
2022/10/18 12:36:02;;;;;;;4.13;3.83;;;;;;;;;;5067396;28;20452;-78
2022/10/18 12:38:30;;;;;;;1.00;0.90;;;;;;;;;;5073525;28;20465;-78
2022/10/18 12:40:58;;;;;;;7.63;3.67;;;;;;;;;;5072088;28;20398;-78
2022/10/18 12:43:25;;;;;;;0.93;0.87;;;;;;;;;;5069328;28;20556;-78
2022/10/18 12:45:55;;;;;;;2.37;2.27;;;;;;;;;;5086728;28;20442;-78
2022/10/18 12:48:26;;;;;;;2.00;1.90;;;;;;;;;;5089020;28;20427;-78
2022/10/18 12:50:56;;;;;;;1.70;0.90;;;;;;;;;;5085011;28;20455;-78
2022/10/18 12:53:25;;;;;;;0.73;0.70;;;;;;;;;;5063179;28;20438;-77
2022/10/18 12:56:14;;;;;;;0.80;0.80;;;;;;;;;;5081499;28;20474;-78
2022/10/18 12:58:41;;;;;;;1.90;1.80;;;;;;;;;;5063988;28;20453;-78
2022/10/18 13:01:09;;;;;;;0.70;0.67;;;;;;;;;;5084771;28;20461;-77
2022/10/18 13:03:59;;;;;;;3.60;3.30;;;;;;;;;;5076815;28;20447;-78
2022/10/18 13:06:45;;;;;;;0.80;0.70;;;;;;;;;;5075600;28;20992;-77
2022/10/18 13:09:20;;;;;;;3.73;2.97;;;;;;;;;;5090262;28;20431;-78
2022/10/18 13:11:48;;;;;;;0.70;0.60;;;;;;;;;;5079654;28;20453;-78
2022/10/18 13:14:30;;;;;;;2.53;2.40;;;;;;;;;;5085249;28;20431;-77
2022/10/18 13:17:00;;;;;;;1.10;1.00;;;;;;;;;;5077883;28;20469;-79
2022/10/18 13:19:32;;;;;;;2.03;1.30;;;;;;;;;;5062221;28;20465;-79
2022/10/18 13:22:09;;;;;;;0.70;0.70;;;;;;;;;;5081024;28;20554;-78
2022/10/18 13:24:38;;;;;;;0.80;0.70;;;;;;;;;;5077851;28;20955;-78
2022/10/18 13:27:15;;;;;;;1.23;1.13;;;;;;;;;;5081131;28;20469;-78
2022/10/18 13:30:28;;;;;;;0.87;0.87;;;;;;;;;;5073379;28;20446;-78
2022/10/18 13:32:57;;;;;;;0.70;0.60;;;;;;;;;;5002632;28;20816;-79
2022/10/18 13:35:43;;;;;;;1.23;1.13;;;;;;;;;;5091684;28;20470;-78
2022/10/18 13:38:29;;;;;;;0.97;0.97;;;;;;;;;;5093263;28;20430;-78
2022/10/18 13:41:02;;;;;;;0.90;0.90;;;;;;;;;;5087215;28;20472;-78
2022/10/18 13:44:02;;;;;;;1.97;1.57;;;;;;;;;;5076689;28;20529;-78
2022/10/18 13:46:47;;;;;;;0.70;0.70;;;;;;;;;;5053357;28;20453;-78
2022/10/18 13:49:22;;;;;;;0.70;0.60;;;;;;;;;;5080625;28;20441;-79
2022/10/18 13:51:56;;;;;;;0.70;0.67;;;;;;;;;;5082102;28;20462;-78
2022/10/18 13:54:39;;;;;;;0.70;0.60;;;;;;;;;;5082493;28;20548;-78
2022/10/18 13:57:11;;;;;;;0.90;0.80;;;;;;;;;;5089414;28;20958;-78
2022/10/18 14:00:07;;;;;;;1.00;1.00;;;;;;;;;;5081970;28;20426;-79
2022/10/18 14:02:48;;;;;;;0.70;0.60;;;;;;;;;;5085173;28;20430;-79
2022/10/18 14:05:36;;;;;;;0.90;0.90;;;;;;;;;;5059076;28;21194;-79
2022/10/18 14:08:06;;;;;;;0.77;0.67;;;;;;;;;;5087486;28;20432;-79
2022/10/18 14:10:39;;;;;;;1.10;0.80;;;;;;;;;;5080591;28;20447;-80
2022/10/18 14:13:30;;;;;;;0.80;0.80;;;;;;;;;;5084744;28;20441;-80
2022/10/18 14:16:02;;;;;;;2.30;1.20;;;;;;;;;;5080692;28;20469;-80
2022/10/18 14:18:30;;;;;;;1.57;1.47;;;;;;;;;;5085336;28;20446;-80
2022/10/18 14:21:00;;;;;;;0.80;0.80;;;;;;;;;;5073139;28;21286;-80
2022/10/18 14:23:42;;;;;;;0.70;0.60;;;;;;;;;;5077567;28;21007;-80
2022/10/18 14:26:12;;;;;;;1.00;1.00;;;;;;;;;;5083460;28;20449;-79
2022/10/18 14:28:40;;;;;;;0.70;0.70;;;;;;;;;;5073346;28;20536;-79
2022/10/18 14:31:26;;;;;;;0.80;0.80;;;;;;;;;;5081105;28;20863;-79
2022/10/18 14:33:54;;;;;;;1.43;1.33;;;;;;;;;;5059042;28;20545;-79
2022/10/18 14:36:25;;;;;;;0.70;0.60;;;;;;;;;;5088484;28;20465;-78
2022/10/18 14:38:55;;;;;;;1.50;1.10;;;;;;;;;;5079022;28;20519;-79
2022/10/18 14:41:23;;;;;;;0.70;0.70;;;;;;;;;;5081314;28;20512;-79
2022/10/18 14:43:52;;;;;;;1.00;1.00;;;;;;;;;;5056113;28;20469;-80
2022/10/18 14:46:22;;;;;;;0.70;0.60;;;;;;;;;;5079666;28;20564;-79
2022/10/18 14:48:55;;;;;;;0.70;0.60;;;;;;;;;;5101189;28;20453;-79
2022/10/18 14:51:22;;;;;;;0.70;0.67;;;;;;;;;;5089707;28;20457;-79
2022/10/18 14:53:50;;;;;;;0.70;0.60;;;;;;;;;;5077018;28;20445;-79
2022/10/18 14:56:25;;;;;;;1.17;1.07;;;;;;;;;;5079814;28;20478;-79
2022/10/18 14:58:55;;;;;;;1.87;0.90;;;;;;;;;;5093764;28;20553;-79
2022/10/18 15:01:24;;;;;;;0.80;0.70;;;;;;;;;;5088636;28;20430;-79
2022/10/18 15:03:54;;;;;;;0.70;0.70;;;;;;;;;;5085131;28;20414;-79
2022/10/18 15:06:21;;;;;;;0.80;0.70;;;;;;;;;;5086830;28;20425;-79
2022/10/18 15:08:50;;;;;;;1.23;1.13;;;;;;;;;;5090844;28;20561;-79
2022/10/18 15:11:19;;;;;;;0.80;0.80;;;;;;;;;;5080887;28;20899;-79